createdAt,value
2017-02-13T00:00:34.457Z,0
2017-02-13T00:01:45.258Z,0
2017-02-13T00:02:55.205Z,0
2017-02-13T00:04:05.141Z,0
2017-02-13T00:05:15.070Z,0
2017-02-13T00:06:25.451Z,0
2017-02-13T00:07:35.332Z,0
2017-02-13T00:08:45.679Z,0
2017-02-13T00:09:56.035Z,0
2017-02-13T00:11:05.582Z,0
2017-02-13T00:12:15.106Z,0
2017-02-13T00:13:24.986Z,0
2017-02-13T00:14:35.354Z,0
2017-02-13T00:15:45.278Z,0
2017-02-13T00:16:55.652Z,0
2017-02-13T00:18:05.994Z,0
2017-02-13T00:19:15.831Z,0
2017-02-13T00:20:26.205Z,0
2017-02-13T00:21:36.155Z,0
2017-02-13T00:22:45.673Z,0
2017-02-13T00:23:56.020Z,0
2017-02-13T00:25:06.721Z,0
2017-02-13T00:26:17.088Z,0
2017-02-13T00:27:27.448Z,0
2017-02-13T00:28:37.814Z,0
2017-02-13T00:29:48.158Z,0
2017-02-13T00:30:58.435Z,0
2017-02-13T00:32:07.958Z,0
2017-02-13T00:33:17.505Z,0
2017-02-13T00:34:27.462Z,0
2017-02-13T00:35:37.815Z,0
2017-02-13T00:36:48.514Z,0
2017-02-13T00:37:58.873Z,0
2017-02-13T00:39:09.243Z,0
2017-02-13T00:40:19.169Z,0
2017-02-13T00:41:29.531Z,0
2017-02-13T00:42:40.290Z,0
2017-02-13T00:43:49.821Z,0
2017-02-13T00:45:00.171Z,0
2017-02-13T00:46:10.117Z,0
2017-02-13T00:47:20.065Z,0
2017-02-13T00:48:30.326Z,0
2017-02-13T00:49:40.685Z,0
2017-02-13T00:50:51.063Z,0
2017-02-13T00:52:00.998Z,0
2017-02-13T00:53:10.930Z,0
2017-02-13T00:54:21.587Z,0
2017-02-13T00:55:31.958Z,0
2017-02-13T00:56:41.929Z,0
2017-02-13T00:57:52.278Z,0
2017-02-13T00:59:02.215Z,0
2017-02-13T01:00:12.912Z,0
2017-02-13T01:01:23.275Z,0
2017-02-13T01:02:33.638Z,0
2017-02-13T01:03:44.010Z,0
2017-02-13T01:04:53.973Z,0
2017-02-13T01:06:04.676Z,0
2017-02-13T01:07:15.038Z,0
2017-02-13T01:08:24.985Z,0
2017-02-13T01:09:35.341Z,0
2017-02-13T01:10:44.877Z,0
2017-02-13T01:11:55.584Z,0
2017-02-13T01:13:05.948Z,0
2017-02-13T01:14:16.317Z,0
2017-02-13T01:15:26.663Z,0
2017-02-13T01:16:36.188Z,0
2017-02-13T01:17:46.845Z,0
2017-02-13T01:18:56.795Z,0
2017-02-13T01:20:06.741Z,0
2017-02-13T01:21:16.298Z,0
2017-02-13T01:22:26.242Z,0
2017-02-13T01:23:36.547Z,0
2017-02-13T01:24:46.485Z,0
2017-02-13T01:25:56.844Z,0
2017-02-13T01:27:07.183Z,0
2017-02-13T01:28:16.720Z,0
2017-02-13T01:29:27.031Z,0
2017-02-13T01:30:37.405Z,0
2017-02-13T01:31:47.345Z,0
2017-02-13T01:32:57.278Z,0
2017-02-13T01:34:07.629Z,0
2017-02-13T01:35:17.913Z,0
2017-02-13T01:36:28.289Z,0
2017-02-13T01:37:38.222Z,0
2017-02-13T01:38:48.606Z,0
2017-02-13T01:39:58.546Z,0
2017-02-13T01:41:09.315Z,0
2017-02-13T01:42:18.844Z,0
2017-02-13T01:43:29.202Z,0
2017-02-13T01:44:39.561Z,0
2017-02-13T01:45:49.544Z,0
2017-02-13T01:47:00.213Z,0
2017-02-13T01:48:09.766Z,0
2017-02-13T01:49:19.706Z,0
2017-02-13T01:50:29.661Z,0
2017-02-13T01:51:39.171Z,0
2017-02-13T01:52:49.900Z,0
2017-02-13T01:53:59.857Z,0
2017-02-13T01:55:09.385Z,0
2017-02-13T01:56:19.726Z,0
2017-02-13T01:57:29.674Z,0
2017-02-13T01:58:40.380Z,0
2017-02-13T01:59:49.922Z,0
2017-02-13T02:00:59.858Z,0
2017-02-13T02:02:10.219Z,0
2017-02-13T02:03:19.750Z,0
2017-02-13T02:04:30.050Z,0
2017-02-13T02:05:40.415Z,0
2017-02-13T02:06:50.789Z,0
2017-02-13T02:08:01.153Z,0
2017-02-13T02:09:11.492Z,0
2017-02-13T02:10:22.140Z,0
2017-02-13T02:11:32.111Z,0
2017-02-13T02:12:42.477Z,0
2017-02-13T02:13:52.823Z,0
2017-02-13T02:15:03.207Z,0
2017-02-13T02:16:13.548Z,0
2017-02-13T02:17:30.170Z,0
2017-02-13T02:18:40.534Z,0
2017-02-13T02:19:50.460Z,0
2017-02-13T02:21:00.410Z,0
2017-02-13T02:22:10.740Z,0
2017-02-13T02:23:21.095Z,0
2017-02-13T02:24:31.454Z,0
2017-02-13T02:25:41.389Z,0
2017-02-13T02:26:51.732Z,0
2017-02-13T02:28:01.959Z,0
2017-02-13T02:29:12.310Z,0
2017-02-13T02:30:22.256Z,0
2017-02-13T02:31:32.612Z,0
2017-02-13T02:32:42.556Z,0
2017-02-13T02:33:52.883Z,0
2017-02-13T02:35:03.228Z,0
2017-02-13T02:36:12.730Z,0
2017-02-13T02:37:22.253Z,0
2017-02-13T02:38:32.603Z,0
2017-02-13T02:39:43.297Z,0
2017-02-13T02:40:53.231Z,0
2017-02-13T02:42:02.743Z,0
2017-02-13T02:43:12.680Z,0
2017-02-13T02:44:23.032Z,0
2017-02-13T02:45:33.372Z,0
2017-02-13T02:46:43.717Z,0
2017-02-13T02:47:53.238Z,0
2017-02-13T02:49:03.586Z,0
2017-02-13T02:50:13.095Z,0
2017-02-13T02:51:23.799Z,0
2017-02-13T02:52:34.150Z,0
2017-02-13T02:53:44.507Z,0
2017-02-13T02:54:54.856Z,0
2017-02-13T02:56:04.785Z,0
2017-02-13T02:57:14.330Z,0
2017-02-13T02:58:24.663Z,0
2017-02-13T02:59:34.583Z,0
2017-02-13T03:00:44.926Z,0
2017-02-13T03:01:54.868Z,0
2017-02-13T03:03:05.106Z,0
2017-02-13T03:04:15.027Z,0
2017-02-13T03:05:24.963Z,0
2017-02-13T03:06:35.338Z,0
2017-02-13T03:07:45.259Z,0
2017-02-13T03:08:55.594Z,0
2017-02-13T03:10:05.939Z,0
2017-02-13T03:11:16.275Z,0
2017-02-13T03:12:26.609Z,0
2017-02-13T03:13:36.954Z,0
2017-02-13T03:14:46.821Z,0
2017-02-13T03:15:56.783Z,0
2017-02-13T03:17:07.126Z,0
2017-02-13T03:18:16.653Z,0
2017-02-13T03:19:27.008Z,0
2017-02-13T03:20:37.275Z,0
2017-02-13T03:21:47.611Z,0
2017-02-13T03:22:57.539Z,0
2017-02-13T03:24:07.902Z,0
2017-02-13T03:25:17.856Z,0
2017-02-13T03:26:28.087Z,0
2017-02-13T03:27:38.026Z,0
2017-02-13T03:28:48.367Z,0
2017-02-13T03:29:58.305Z,0
2017-02-13T03:31:08.223Z,0
2017-02-13T03:32:18.931Z,0
2017-02-13T03:33:29.291Z,0
2017-02-13T03:34:39.643Z,0
2017-02-13T03:35:49.978Z,0
2017-02-13T03:37:00.337Z,0
2017-02-13T03:38:11.022Z,0
2017-02-13T03:39:21.355Z,0
2017-02-13T03:40:31.698Z,0
2017-02-13T03:41:41.640Z,0
2017-02-13T03:42:52.010Z,0
2017-02-13T03:44:02.696Z,0
2017-02-13T03:45:13.072Z,0
2017-02-13T03:46:22.991Z,0
2017-02-13T03:47:32.927Z,0
2017-02-13T03:48:43.299Z,0
2017-02-13T03:49:53.521Z,0
2017-02-13T03:51:03.037Z,0
2017-02-13T03:52:12.996Z,0
2017-02-13T03:53:22.927Z,0
2017-02-13T03:54:33.270Z,0
2017-02-13T03:55:43.549Z,0
2017-02-13T03:56:53.475Z,0
2017-02-13T03:58:03.809Z,0
2017-02-13T03:59:13.772Z,0
2017-02-13T04:00:24.108Z,0
2017-02-13T04:01:34.422Z,0
2017-02-13T04:02:44.346Z,0
2017-02-13T04:03:53.875Z,0
2017-02-13T04:05:04.235Z,0
2017-02-13T04:06:14.604Z,0
2017-02-13T04:07:24.480Z,0
2017-02-13T04:08:34.409Z,0
2017-02-13T04:09:44.756Z,0
2017-02-13T04:10:54.690Z,0
2017-02-13T04:12:05.036Z,0
2017-02-13T04:13:14.511Z,0
2017-02-13T04:14:24.865Z,0
2017-02-13T04:15:35.216Z,0
2017-02-13T04:16:44.754Z,0
2017-02-13T04:17:55.093Z,0
2017-02-13T04:19:05.371Z,0
2017-02-13T04:20:15.732Z,0
2017-02-13T04:21:26.100Z,0
2017-02-13T04:22:36.056Z,0
2017-02-13T04:23:46.410Z,0
2017-02-13T04:24:56.658Z,0
2017-02-13T04:26:06.168Z,0
2017-02-13T04:27:16.094Z,0
2017-02-13T04:28:26.014Z,0
2017-02-13T04:29:35.954Z,0
2017-02-13T04:30:46.658Z,0
2017-02-13T04:31:57.005Z,0
2017-02-13T04:33:06.943Z,0
2017-02-13T04:34:17.317Z,0
2017-02-13T04:35:27.251Z,0
2017-02-13T04:36:37.957Z,0
2017-02-13T04:37:47.890Z,0
2017-02-13T04:38:57.828Z,0
2017-02-13T04:40:07.772Z,0
2017-02-13T04:41:17.694Z,0
2017-02-13T04:42:28.399Z,0
2017-02-13T04:43:38.344Z,0
2017-02-13T04:44:48.265Z,0
2017-02-13T04:45:58.190Z,0
2017-02-13T04:47:08.118Z,0
2017-02-13T04:48:18.831Z,0
2017-02-13T04:49:29.182Z,0
2017-02-13T04:50:39.113Z,0
2017-02-13T04:51:49.454Z,0
2017-02-13T04:52:59.800Z,0
2017-02-13T04:54:10.139Z,0
2017-02-13T04:55:20.488Z,0
2017-02-13T04:56:30.431Z,0
2017-02-13T04:57:40.780Z,0
2017-02-13T04:58:51.137Z,0
2017-02-13T05:00:01.008Z,0
2017-02-13T05:01:11.357Z,0
2017-02-13T05:02:20.875Z,0
2017-02-13T05:03:31.212Z,0
2017-02-13T05:04:41.581Z,0
2017-02-13T05:05:52.264Z,0
2017-02-13T05:07:02.223Z,0
2017-02-13T05:08:12.578Z,0
2017-02-13T05:09:22.923Z,0
2017-02-13T05:10:32.851Z,0
2017-02-13T05:11:43.124Z,0
2017-02-13T05:12:53.476Z,0
2017-02-13T05:14:03.832Z,0
2017-02-13T05:15:14.179Z,0
2017-02-13T05:16:24.523Z,0
2017-02-13T05:17:34.882Z,0
2017-02-13T05:18:44.817Z,0
2017-02-13T05:19:55.159Z,0
2017-02-13T05:21:05.512Z,0
2017-02-13T05:22:15.030Z,0
2017-02-13T05:23:25.252Z,0
2017-02-13T05:24:35.592Z,0
2017-02-13T05:25:45.953Z,0
2017-02-13T05:26:55.874Z,0
2017-02-13T05:28:04.999Z,0
2017-02-13T05:29:14.970Z,0
2017-02-13T05:30:24.480Z,0
2017-02-13T05:31:34.818Z,0
2017-02-13T05:32:45.165Z,0
2017-02-13T05:33:55.086Z,0
2017-02-13T05:35:05.730Z,0
2017-02-13T05:36:15.689Z,0
2017-02-13T05:37:26.034Z,0
2017-02-13T05:38:36.377Z,0
2017-02-13T05:39:46.355Z,0
2017-02-13T05:40:56.649Z,0
2017-02-13T05:42:06.621Z,0
2017-02-13T05:43:16.544Z,0
2017-02-13T05:44:26.888Z,0
2017-02-13T05:45:36.426Z,0
2017-02-13T05:46:45.978Z,0
2017-02-13T05:47:55.913Z,0
2017-02-13T05:49:05.840Z,0
2017-02-13T05:50:15.774Z,0
2017-02-13T05:51:25.701Z,0
2017-02-13T05:52:35.931Z,0
2017-02-13T05:53:46.283Z,0
2017-02-13T05:54:56.631Z,0
2017-02-13T05:56:06.988Z,0
2017-02-13T05:57:16.915Z,0
2017-02-13T05:58:27.243Z,0
2017-02-13T05:59:37.606Z,0
2017-02-13T06:00:47.944Z,0
2017-02-13T06:01:57.877Z,0
2017-02-13T06:03:07.825Z,0
2017-02-13T06:04:18.118Z,0
2017-02-13T06:05:28.461Z,0
2017-02-13T06:06:38.384Z,0
2017-02-13T06:07:48.753Z,0
2017-02-13T06:08:58.689Z,0
2017-02-13T06:10:09.386Z,0
2017-02-13T06:11:18.899Z,0
2017-02-13T06:12:28.830Z,0
2017-02-13T06:13:39.192Z,0
2017-02-13T06:14:49.123Z,0
2017-02-13T06:15:59.715Z,0
2017-02-13T06:17:09.665Z,0
2017-02-13T06:18:19.994Z,0
2017-02-13T06:19:29.923Z,0
2017-02-13T06:20:40.280Z,0
2017-02-13T06:21:50.566Z,0
2017-02-13T06:23:00.487Z,0
2017-02-13T06:24:10.423Z,0
2017-02-13T06:25:20.361Z,0
2017-02-13T06:26:30.711Z,0
2017-02-13T06:27:41.462Z,0
2017-02-13T06:28:51.409Z,0
2017-02-13T06:30:01.341Z,0
2017-02-13T06:31:11.689Z,0
2017-02-13T06:32:22.048Z,0
2017-02-13T06:33:31.867Z,0
2017-02-13T06:34:41.797Z,0
2017-02-13T06:35:51.316Z,5
2017-02-13T06:37:01.665Z,5
2017-02-13T06:38:11.592Z,5
2017-02-13T06:39:21.533Z,5
2017-02-13T06:40:31.909Z,5
2017-02-13T06:41:41.851Z,10
2017-02-13T06:42:51.780Z,10
2017-02-13T06:44:02.145Z,10
2017-02-13T06:45:12.836Z,10
2017-02-13T06:46:22.763Z,15
2017-02-13T06:47:33.111Z,15
2017-02-13T06:48:43.060Z,15
2017-02-13T06:49:53.404Z,20
2017-02-13T06:51:03.607Z,20
2017-02-13T06:52:13.534Z,25
2017-02-13T06:53:23.481Z,25
2017-02-13T06:54:33.437Z,30
2017-02-13T06:55:43.783Z,30
2017-02-13T06:56:54.538Z,35
2017-02-13T06:58:04.881Z,35
2017-02-13T06:59:15.233Z,40
2017-02-13T07:00:25.591Z,40
2017-02-13T07:01:35.569Z,45
2017-02-13T07:02:46.180Z,45
2017-02-13T07:03:55.695Z,50
2017-02-13T07:05:06.059Z,55
2017-02-13T07:06:15.588Z,55
2017-02-13T07:07:25.558Z,60
2017-02-13T07:08:35.845Z,65
2017-02-13T07:09:45.765Z,65
2017-02-13T07:10:55.703Z,70
2017-02-13T07:12:05.632Z,75
2017-02-13T07:13:15.143Z,75
2017-02-13T07:14:25.839Z,80
2017-02-13T07:15:35.780Z,85
2017-02-13T07:16:45.716Z,85
2017-02-13T07:17:56.062Z,90
2017-02-13T07:19:06.400Z,95
2017-02-13T07:20:16.630Z,95
2017-02-13T07:21:26.562Z,100
2017-02-13T07:22:36.502Z,105
2017-02-13T07:23:46.439Z,110
2017-02-13T07:24:56.367Z,110
2017-02-13T07:26:06.694Z,115
2017-02-13T07:27:17.033Z,120
2017-02-13T07:28:27.379Z,120
2017-02-13T07:29:37.314Z,125
2017-02-13T07:30:47.671Z,130
2017-02-13T07:31:58.421Z,130
2017-02-13T07:33:08.767Z,135
2017-02-13T07:34:19.125Z,140
2017-02-13T07:35:29.045Z,145
2017-02-13T07:36:39.379Z,145
2017-02-13T07:37:49.292Z,150
2017-02-13T07:38:59.653Z,155
2017-02-13T07:40:09.572Z,155
2017-02-13T07:41:19.495Z,160
2017-02-13T07:42:29.852Z,165
2017-02-13T07:43:40.498Z,165
2017-02-13T07:44:50.859Z,170
2017-02-13T07:46:01.205Z,170
2017-02-13T07:47:11.579Z,175
2017-02-13T07:48:21.119Z,180
2017-02-13T07:49:31.703Z,180
2017-02-13T07:50:41.665Z,185
2017-02-13T07:51:50.777Z,185
2017-02-13T07:53:00.722Z,190
2017-02-13T07:54:10.249Z,190
2017-02-13T07:55:20.882Z,190
2017-02-13T07:56:30.844Z,195
2017-02-13T07:57:40.352Z,195
2017-02-13T07:58:49.923Z,200
2017-02-13T08:00:00.298Z,200
2017-02-13T08:01:10.560Z,205
2017-02-13T08:02:20.906Z,205
2017-02-13T08:03:30.840Z,210
2017-02-13T08:04:40.364Z,215
2017-02-13T08:05:49.879Z,215
2017-02-13T08:07:00.591Z,220
2017-02-13T08:08:10.951Z,220
2017-02-13T08:09:20.882Z,225
2017-02-13T08:10:30.840Z,225
2017-02-13T08:11:41.072Z,225
2017-02-13T08:12:51.397Z,230
2017-02-13T08:14:01.748Z,230
2017-02-13T08:15:11.681Z,230
2017-02-13T08:16:22.049Z,235
2017-02-13T08:17:32.410Z,235
2017-02-13T08:18:43.107Z,240
2017-02-13T08:19:52.639Z,240
2017-02-13T08:21:02.575Z,240
2017-02-13T08:22:12.087Z,245
2017-02-13T08:23:22.015Z,245
2017-02-13T08:24:32.382Z,250
2017-02-13T08:25:42.325Z,250
2017-02-13T08:26:52.255Z,250
2017-02-13T08:28:02.633Z,255
2017-02-13T08:29:12.983Z,255
2017-02-13T08:30:23.265Z,255
2017-02-13T08:31:33.638Z,260
2017-02-13T08:32:43.988Z,260
2017-02-13T08:33:53.500Z,260
2017-02-13T08:35:03.837Z,265
2017-02-13T08:36:14.116Z,265
2017-02-13T08:37:24.471Z,265
2017-02-13T08:38:34.825Z,265
2017-02-13T08:39:44.333Z,270
2017-02-13T08:40:54.692Z,270
2017-02-13T08:42:04.971Z,275
2017-02-13T08:43:14.900Z,275
2017-02-13T08:44:25.273Z,275
2017-02-13T08:45:35.207Z,280
2017-02-13T08:46:45.152Z,280
2017-02-13T08:47:55.543Z,280
2017-02-13T08:49:05.899Z,280
2017-02-13T08:50:15.415Z,285
2017-02-13T08:51:25.764Z,285
2017-02-13T08:52:36.112Z,285
2017-02-13T08:53:45.942Z,290
2017-02-13T08:54:56.282Z,290
2017-02-13T08:56:06.221Z,290
2017-02-13T08:57:16.553Z,290
2017-02-13T08:58:26.502Z,295
2017-02-13T08:59:37.192Z,295
2017-02-13T09:00:47.550Z,295
2017-02-13T09:01:57.893Z,300
2017-02-13T09:03:08.248Z,300
2017-02-13T09:04:18.171Z,300
2017-02-13T09:05:28.983Z,305
2017-02-13T09:06:38.912Z,305
2017-02-13T09:07:49.260Z,305
2017-02-13T09:08:59.211Z,305
2017-02-13T09:10:09.548Z,305
2017-02-13T09:11:19.819Z,310
2017-02-13T09:12:30.156Z,310
2017-02-13T09:13:40.534Z,310
2017-02-13T09:14:50.898Z,310
2017-02-13T09:16:01.264Z,310
2017-02-13T09:17:11.953Z,310
2017-02-13T09:18:22.304Z,310
2017-02-13T09:19:32.661Z,315
2017-02-13T09:20:43.016Z,315
2017-02-13T09:21:52.978Z,315
2017-02-13T09:23:03.771Z,315
2017-02-13T09:24:14.127Z,320
2017-02-13T09:25:24.509Z,320
2017-02-13T09:26:34.444Z,320
2017-02-13T09:27:44.794Z,320
2017-02-13T09:28:55.557Z,320
2017-02-13T09:30:05.112Z,320
2017-02-13T09:31:15.461Z,325
2017-02-13T09:32:25.830Z,325
2017-02-13T09:33:36.189Z,325
2017-02-13T09:34:46.878Z,325
2017-02-13T09:35:56.809Z,325
2017-02-13T09:37:07.176Z,330
2017-02-13T09:38:17.123Z,330
2017-02-13T09:39:27.052Z,330
2017-02-13T09:40:37.845Z,335
2017-02-13T09:41:46.967Z,335
2017-02-13T09:42:57.321Z,335
2017-02-13T09:44:07.253Z,335
2017-02-13T09:45:17.601Z,335
2017-02-13T09:46:27.378Z,335
2017-02-13T09:47:37.733Z,335
2017-02-13T09:48:48.083Z,335
2017-02-13T09:49:58.021Z,335
2017-02-13T09:51:08.369Z,335
2017-02-13T09:52:18.597Z,340
2017-02-13T09:53:28.548Z,340
2017-02-13T09:54:38.493Z,340
2017-02-13T09:55:48.430Z,340
2017-02-13T09:56:58.793Z,340
2017-02-13T09:58:09.386Z,340
2017-02-13T09:59:18.907Z,340
2017-02-13T10:00:28.436Z,340
2017-02-13T10:01:38.373Z,345
2017-02-13T10:02:48.297Z,345
2017-02-13T10:03:58.174Z,345
2017-02-13T10:05:07.716Z,350
2017-02-13T10:06:17.643Z,345
2017-02-13T10:07:28.018Z,345
2017-02-13T10:08:38.384Z,345
2017-02-13T10:09:49.064Z,345
2017-02-13T10:10:59.420Z,345
2017-02-13T10:12:09.771Z,345
2017-02-13T10:13:20.151Z,345
2017-02-13T10:14:30.093Z,345
2017-02-13T10:15:40.421Z,345
2017-02-13T10:16:50.784Z,345
2017-02-13T10:18:01.129Z,345
2017-02-13T10:19:11.496Z,350
2017-02-13T10:20:21.876Z,350
2017-02-13T10:21:32.587Z,350
2017-02-13T10:22:42.525Z,350
2017-02-13T10:23:52.499Z,350
2017-02-13T10:25:02.471Z,350
2017-02-13T10:26:12.405Z,350
2017-02-13T10:27:22.633Z,350
2017-02-13T10:28:32.992Z,350
2017-02-13T10:29:42.548Z,350
2017-02-13T10:30:52.492Z,350
2017-02-13T10:32:02.019Z,345
2017-02-13T10:33:12.369Z,350
2017-02-13T10:34:22.723Z,350
2017-02-13T10:35:33.103Z,350
2017-02-13T10:36:43.493Z,350
2017-02-13T10:37:53.425Z,345
2017-02-13T10:39:03.752Z,350
2017-02-13T10:40:13.284Z,350
2017-02-13T10:41:23.248Z,350
2017-02-13T10:42:33.604Z,350
2017-02-13T10:43:43.568Z,350
2017-02-13T10:44:54.220Z,350
2017-02-13T10:46:04.592Z,350
2017-02-13T10:47:14.537Z,355
2017-02-13T10:48:24.472Z,350
2017-02-13T10:49:34.813Z,350
2017-02-13T10:50:45.090Z,350
2017-02-13T10:51:55.434Z,350
2017-02-13T10:53:05.815Z,350
2017-02-13T10:54:16.173Z,350
2017-02-13T10:55:26.533Z,350
2017-02-13T10:56:37.252Z,350
2017-02-13T10:57:47.196Z,350
2017-02-13T10:58:56.716Z,355
2017-02-13T11:00:07.099Z,355
2017-02-13T11:01:17.033Z,355
2017-02-13T11:02:27.330Z,355
2017-02-13T11:03:37.670Z,355
2017-02-13T11:04:47.602Z,350
2017-02-13T11:05:57.947Z,350
2017-02-13T11:07:08.296Z,350
2017-02-13T11:08:18.171Z,350
2017-02-13T11:09:28.141Z,350
2017-02-13T11:10:37.660Z,350
2017-02-13T11:11:47.591Z,350
2017-02-13T11:12:57.123Z,350
2017-02-13T11:14:07.832Z,350
2017-02-13T11:15:17.365Z,350
2017-02-13T11:16:26.491Z,350
2017-02-13T11:17:36.441Z,350
2017-02-13T11:18:46.387Z,350
2017-02-13T11:19:56.711Z,350
2017-02-13T11:21:07.051Z,350
2017-02-13T11:22:16.995Z,350
2017-02-13T11:23:26.980Z,350
2017-02-13T11:24:36.106Z,350
2017-02-13T11:25:46.394Z,350
2017-02-13T11:26:55.908Z,350
2017-02-13T11:28:06.292Z,350
2017-02-13T11:29:16.218Z,350
2017-02-13T11:30:25.763Z,345
2017-02-13T11:31:36.417Z,345
2017-02-13T11:32:46.365Z,345
2017-02-13T11:33:56.720Z,345
2017-02-13T11:35:06.658Z,345
2017-02-13T11:36:17.039Z,345
2017-02-13T11:37:27.354Z,350
2017-02-13T11:38:36.862Z,350
2017-02-13T11:39:47.239Z,350
2017-02-13T11:40:57.600Z,350
2017-02-13T11:42:07.535Z,350
2017-02-13T11:43:17.503Z,350
2017-02-13T11:44:27.878Z,350
2017-02-13T11:45:38.228Z,350
2017-02-13T11:46:48.192Z,350
2017-02-13T11:47:58.548Z,355
2017-02-13T11:49:09.244Z,355
2017-02-13T11:50:19.603Z,350
2017-02-13T11:51:29.540Z,350
2017-02-13T11:52:39.900Z,350
2017-02-13T11:53:49.415Z,350
2017-02-13T11:54:59.773Z,350
2017-02-13T11:56:09.284Z,350
2017-02-13T11:57:19.651Z,350
2017-02-13T11:58:29.590Z,350
2017-02-13T11:59:39.538Z,350
2017-02-13T12:00:50.195Z,350
2017-02-13T12:02:00.548Z,350
2017-02-13T12:03:10.489Z,350
2017-02-13T12:04:20.838Z,350
2017-02-13T12:05:30.380Z,350
2017-02-13T12:06:41.046Z,350
2017-02-13T12:07:51.405Z,345
2017-02-13T12:09:01.760Z,345
2017-02-13T12:10:12.114Z,355
2017-02-13T12:11:22.483Z,345
2017-02-13T12:12:33.168Z,345
2017-02-13T12:13:43.523Z,345
2017-02-13T12:14:53.858Z,345
2017-02-13T12:16:04.228Z,345
2017-02-13T12:17:14.171Z,345
2017-02-13T12:18:24.069Z,345
2017-02-13T12:19:34.025Z,345
2017-02-13T12:20:44.393Z,345
2017-02-13T12:21:54.745Z,345
2017-02-13T12:23:05.139Z,345
2017-02-13T12:24:15.878Z,345
2017-02-13T12:25:26.246Z,345
2017-02-13T12:26:36.200Z,345
2017-02-13T12:27:46.574Z,340
2017-02-13T12:28:56.943Z,340
2017-02-13T12:30:06.909Z,345
2017-02-13T12:31:17.260Z,345
2017-02-13T12:32:27.605Z,340
2017-02-13T12:33:37.574Z,340
2017-02-13T12:34:47.105Z,340
2017-02-13T12:35:57.815Z,340
2017-02-13T12:37:07.759Z,340
2017-02-13T12:38:18.145Z,340
2017-02-13T12:39:28.524Z,340
2017-02-13T12:40:38.919Z,345
2017-02-13T12:41:49.635Z,340
2017-02-13T12:42:59.557Z,340
2017-02-13T12:45:39.135Z,340
2017-02-13T12:46:48.918Z,340
2017-02-13T12:47:58.845Z,345
2017-02-13T12:49:09.223Z,340
2017-02-13T12:50:19.160Z,340
2017-02-13T12:51:29.093Z,340
2017-02-13T12:52:39.806Z,340
2017-02-13T12:53:50.161Z,340
2017-02-13T12:55:00.524Z,340
2017-02-13T12:56:10.452Z,340
2017-02-13T12:57:20.799Z,340
2017-02-13T12:58:31.073Z,340
2017-02-13T12:59:40.629Z,340
2017-02-13T13:00:50.620Z,340
2017-02-13T13:02:01.002Z,340
2017-02-13T13:03:10.964Z,340
2017-02-13T13:04:20.831Z,340
2017-02-13T13:05:31.179Z,345
2017-02-13T13:06:41.146Z,345
2017-02-13T13:07:51.122Z,345
2017-02-13T13:09:01.495Z,345
2017-02-13T13:10:11.880Z,345
2017-02-13T13:11:21.849Z,345
2017-02-13T13:12:31.804Z,345
2017-02-13T13:13:41.803Z,345
2017-02-13T13:14:51.760Z,350
2017-02-13T13:16:02.211Z,345
2017-02-13T13:17:12.165Z,350
2017-02-13T13:18:22.542Z,350
2017-02-13T13:19:32.892Z,350
2017-02-13T13:20:43.249Z,350
2017-02-13T13:21:53.178Z,350
2017-02-13T13:23:03.590Z,350
2017-02-13T13:24:13.174Z,355
2017-02-13T13:25:23.141Z,355
2017-02-13T13:26:36.546Z,355
2017-02-13T13:27:47.340Z,355
2017-02-13T13:28:57.717Z,355
2017-02-13T13:30:07.671Z,355
2017-02-13T13:31:18.108Z,355
2017-02-13T13:32:28.478Z,355
2017-02-13T13:33:38.795Z,350
2017-02-13T13:34:49.182Z,350
2017-02-13T13:35:59.562Z,350
2017-02-13T13:37:09.916Z,350
2017-02-13T13:38:19.900Z,350
2017-02-13T13:39:30.651Z,350
2017-02-13T13:40:41.095Z,345
2017-02-13T13:41:51.645Z,345
2017-02-13T13:43:01.586Z,345
2017-02-13T13:44:11.103Z,340
2017-02-13T13:45:21.851Z,335
2017-02-13T13:46:32.241Z,335
2017-02-13T13:47:41.795Z,330
2017-02-13T13:48:52.154Z,330
2017-02-13T13:50:02.521Z,325
2017-02-13T13:51:12.808Z,320
2017-02-13T13:52:22.740Z,320
2017-02-13T13:53:33.487Z,325
2017-02-13T13:54:43.849Z,320
2017-02-13T13:55:53.795Z,320
2017-02-13T13:57:04.503Z,320
2017-02-13T13:58:14.864Z,320
2017-02-13T13:59:25.218Z,320
2017-02-13T14:00:35.171Z,320
2017-02-13T14:01:45.124Z,320
2017-02-13T14:02:55.827Z,325
2017-02-13T14:04:06.212Z,315
2017-02-13T14:05:15.731Z,315
2017-02-13T14:06:26.140Z,315
2017-02-13T14:07:36.093Z,310
2017-02-13T14:08:46.737Z,310
2017-02-13T14:09:56.277Z,310
2017-02-13T14:11:06.629Z,310
2017-02-13T14:12:16.572Z,305
2017-02-13T14:13:26.933Z,305
2017-02-13T14:14:37.665Z,305
2017-02-13T14:15:47.609Z,305
2017-02-13T14:16:57.949Z,305
2017-02-13T14:18:08.295Z,300
2017-02-13T14:19:18.247Z,300
2017-02-13T14:20:28.947Z,300
2017-02-13T14:21:39.336Z,295
2017-02-13T14:22:49.286Z,295
2017-02-13T14:23:59.254Z,295
2017-02-13T14:25:09.616Z,295
2017-02-13T14:26:19.855Z,290
2017-02-13T14:27:29.789Z,290
2017-02-13T14:28:40.148Z,290
2017-02-13T14:29:50.081Z,285
2017-02-13T14:31:00.450Z,285
2017-02-13T14:32:11.257Z,285
2017-02-13T14:33:21.622Z,285
2017-02-13T14:34:31.996Z,280
